• Join FlightAware (Why Join?)
  • Login
  • US Flag 
02:23AM EDT


 

Airport Tracker/Info


-or-


 

Live Flight TrackerFlight Track Log ✈ SAS1711 ✈ 31-Jan-2014 ✈ EFHK / HEL - EKCH / CPH

Flight Track Log - Related Links

Times and Time Zones

All times are in EST time to prevent confusion due to time zone crossing. See the SAS1711 flight status page for this flight to view local times or setup timezone preferences in your user account.

Time Position Orientation Groundspeed Altitude Reporting Facility
EST Latitude Longitude Course Direction KTS MPH feet Rate Location/Type
02:36AM 60.1097 24.2602 240° Southwest  Level Estimated
02:37AM 60.0572 24.0858 239° Southwest  Level Estimated
02:38AM 60.0046 23.9120 239° Southwest  Level Estimated
02:39AM 59.9516 23.7387 239° Southwest  Level Estimated
02:40AM 59.8985 23.5660 239° Southwest  Level Estimated
02:41AM 59.8451 23.3938 238° Southwest  Level Estimated
02:42AM 59.7915 23.2222 238° Southwest  Level Estimated
02:43AM 59.7377 23.0511 238° Southwest  Level Estimated
02:44AM 59.6837 22.8806 238° Southwest  Level Estimated
02:45AM 59.6294 22.7106 238° Southwest  Level Estimated
02:46AM 59.5750 22.5412 238° Southwest  Level Estimated
02:47AM 59.5203 22.3724 237° Southwest  Level Estimated
02:48AM 59.4654 22.2040 237° Southwest  Level Estimated
02:49AM 59.4102 22.0363 237° Southwest  Level Estimated
02:50AM 59.3549 21.8690 237° Southwest  Level Estimated
02:51AM 59.2993 21.7024 237° Southwest  Level Estimated
02:52AM 59.2436 21.5362 237° Southwest  Level Estimated
02:53AM 59.1876 21.3706 237° Southwest  Level Estimated
02:54AM 59.1314 21.2056 236° Southwest  Level Estimated
02:55AM 59.0750 21.0411 236° Southwest  Level Estimated
02:56AM 59.0184 20.8771 236° Southwest  Level Estimated
02:57AM 58.9616 20.7137 236° Southwest  Level Estimated
02:58AM 58.9046 20.5508 236° Southwest  Level Estimated
02:59AM 58.8474 20.3884 236° Southwest  Level Estimated
03:00AM 58.7899 20.2266 236° Southwest  Level Estimated
03:01AM 58.7323 20.0653 236° Southwest  Level Estimated
03:02AM 58.6745 19.9046 235° Southwest  Level Estimated
03:03AM 58.6165 19.7444 235° Southwest  Level Estimated
03:04AM 58.5583 19.5847 235° Southwest  Level Estimated
03:05AM 58.4998 19.4255 235° Southwest  Level Estimated
03:06AM 58.4412 19.2669 235° Southwest  Level Estimated
03:07AM 58.3824 19.1088 235° Southwest  Level Estimated
03:08AM 58.3234 18.9513 235° Southwest  Level Estimated
03:09AM 58.2642 18.7942 234° Southwest  Level Estimated
03:10AM 58.2048 18.6377 234° Southwest  Level Estimated
03:11AM 58.1452 18.4817 234° Southwest  Level Estimated
03:12AM 58.0855 18.3262 234° Southwest  Level Estimated
03:13AM 58.0255 18.1713 234° Southwest  Level Estimated
03:14AM 57.9654 18.0168 234° Southwest  Level Estimated
03:15AM 57.9050 17.8629 234° Southwest  Level Estimated
03:16AM 57.8445 17.7095 233° Southwest  Level Estimated
03:17AM 57.7838 17.5567 233° Southwest  Level Estimated
03:18AM 57.7229 17.4043 233° Southwest  Level Estimated
03:19AM 57.6618 17.2524 233° Southwest  Level Estimated
03:20AM 57.6006 17.1011 233° Southwest  Level Estimated
03:21AM 57.5392 16.9503 233° Southwest  Level Estimated
03:22AM 57.4776 16.7999 233° Southwest  Level Estimated
03:23AM 57.4158 16.6501 233° Southwest  Level Estimated
03:24AM 57.3538 16.5008 232° Southwest  Level Estimated
03:25AM 57.2916 16.3520 232° Southwest  Level Estimated
03:26AM 57.2293 16.2037 232° Southwest  Level Estimated
03:27AM 57.1626 16.0459 232° Southwest  Level Estimated
03:28AM 57.0957 15.8887 232° Southwest  Level Estimated
03:29AM 57.0286 15.7321 232° Southwest  Level Estimated
03:30AM 56.9613 15.5760 232° Southwest  Level Estimated
03:31AM 56.8938 15.4205 232° Southwest  Level Estimated
03:32AM 56.8261 15.2656 231° Southwest  Level Estimated
03:33AM 56.7582 15.1112 231° Southwest  Level Estimated
03:34AM 56.6901 14.9573 231° Southwest  Level Estimated
03:35AM 56.6219 14.8041 231° Southwest  Level Estimated
03:36AM 56.5534 14.6514 231° Southwest  Level Estimated
03:37AM 56.4848 14.4992 231° Southwest  Level Estimated
03:38AM 56.4160 14.3476 231° Southwest  Level Estimated
03:39AM 56.3470 14.1965 231° Southwest  Level Estimated
03:40AM 56.2778 14.0460 230° Southwest  Level Estimated
03:41AM 56.2084 13.8960 230° Southwest  Level Estimated
03:42AM 56.1388 13.7466 230° Southwest  Level Estimated
03:43AM 56.0691 13.5977 230° Southwest  Level Estimated
03:44AM 55.9992 13.4493 230° Southwest  Level Estimated
03:45AM 55.9291 13.3015 230° Southwest  Level Estimated
03:46AM 55.8588 13.1542 230° Southwest  Level Estimated
03:47AM 55.7884 13.0075 230° Southwest  Level Estimated
03:48AM 55.7178 12.8613 229° Southwest  Level Estimated
03:49AM 55.6470 12.7156 229° Southwest  Level Estimated
03:50AM 55.6179 12.6560 229° Southwest  Level Estimated
03:51AM 55.6179 12.6560 159° South  Level Estimated
03:52AM 55.6179 12.6560 159° South  Level Estimated
03:53AM 55.6179 12.6560 159° South  Level Estimated
03:54AM 55.6179 12.6560 159° South  Level Estimated
03:55AM 55.6179 12.6560 159° South  Level Estimated
03:56AM 55.6179 12.6560 159° South  Level Estimated
03:57AM 55.6179 12.6560 159° South  Level Estimated
03:58AM 55.6179 12.6560 159° South  Level Estimated
03:59AM 55.6179 12.6560 159° South  Level Estimated
04:00AM 55.6179 12.6560 159° South  Level Estimated
04:01AM 55.6179 12.6560 159° South  Level Estimated
04:02AM 55.6179 12.6560 159° South  Level Estimated